sensor_id;sensor_type;location;lat;lon;timestamp;temperature;humidity
68804;SHT31;55787;52.678;13.314;2023-04-15T00:01:09;7.94;99.26
68804;SHT31;55787;52.678;13.314;2023-04-15T00:03:37;7.96;99.25
68804;SHT31;55787;52.678;13.314;2023-04-15T00:06:04;7.98;99.22
68804;SHT31;55787;52.678;13.314;2023-04-15T00:08:31;7.98;99.09
68804;SHT31;55787;52.678;13.314;2023-04-15T00:10:57;7.96;99.19
68804;SHT31;55787;52.678;13.314;2023-04-15T00:13:28;7.85;99.37
68804;SHT31;55787;52.678;13.314;2023-04-15T00:15:55;7.91;99.24
68804;SHT31;55787;52.678;13.314;2023-04-15T00:18:23;7.95;99.13
68804;SHT31;55787;52.678;13.314;2023-04-15T00:20:49;7.89;99.28
68804;SHT31;55787;52.678;13.314;2023-04-15T00:23:16;7.94;99.30
68804;SHT31;55787;52.678;13.314;2023-04-15T00:25:43;7.94;99.17
68804;SHT31;55787;52.678;13.314;2023-04-15T00:28:10;7.92;99.25
68804;SHT31;55787;52.678;13.314;2023-04-15T00:30:37;7.92;99.20
68804;SHT31;55787;52.678;13.314;2023-04-15T00:33:04;7.88;99.15
68804;SHT31;55787;52.678;13.314;2023-04-15T00:35:31;7.82;99.37
68804;SHT31;55787;52.678;13.314;2023-04-15T00:37:58;7.75;99.61
68804;SHT31;55787;52.678;13.314;2023-04-15T00:40:25;7.74;99.70
68804;SHT31;55787;52.678;13.314;2023-04-15T00:42:53;7.71;99.82
68804;SHT31;55787;52.678;13.314;2023-04-15T00:45:19;7.72;99.92
68804;SHT31;55787;52.678;13.314;2023-04-15T00:47:46;7.75;99.89
68804;SHT31;55787;52.678;13.314;2023-04-15T00:50:13;7.79;99.74
68804;SHT31;55787;52.678;13.314;2023-04-15T00:52:40;7.85;99.74
68804;SHT31;55787;52.678;13.314;2023-04-15T00:55:07;7.78;99.79
68804;SHT31;55787;52.678;13.314;2023-04-15T00:57:35;7.85;99.66
68804;SHT31;55787;52.678;13.314;2023-04-15T01:00:03;7.82;99.53
68804;SHT31;55787;52.678;13.314;2023-04-15T01:02:34;7.88;99.63
68804;SHT31;55787;52.678;13.314;2023-04-15T01:05:03;7.79;99.46
68804;SHT31;55787;52.678;13.314;2023-04-15T01:07:30;7.82;99.63
68804;SHT31;55787;52.678;13.314;2023-04-15T01:09:58;7.82;99.63
68804;SHT31;55787;52.678;13.314;2023-04-15T01:12:26;7.84;99.44
68804;SHT31;55787;52.678;13.314;2023-04-15T01:14:54;7.79;99.72
68804;SHT31;55787;52.678;13.314;2023-04-15T01:17:21;7.75;99.88
68804;SHT31;55787;52.678;13.314;2023-04-15T01:19:48;7.84;99.93
68804;SHT31;55787;52.678;13.314;2023-04-15T01:22:15;7.75;99.84
68804;SHT31;55787;52.678;13.314;2023-04-15T01:24:53;7.74;99.99
68804;SHT31;55787;52.678;13.314;2023-04-15T01:27:21;7.85;99.89
68804;SHT31;55787;52.678;13.314;2023-04-15T01:29:48;7.75;99.99
68804;SHT31;55787;52.678;13.314;2023-04-15T01:32:14;7.79;99.95
68804;SHT31;55787;52.678;13.314;2023-04-15T01:34:42;7.79;99.93
68804;SHT31;55787;52.678;13.314;2023-04-15T01:37:08;7.79;99.95
68804;SHT31;55787;52.678;13.314;2023-04-15T01:39:35;7.75;99.99
68804;SHT31;55787;52.678;13.314;2023-04-15T01:42:01;7.72;99.99
68804;SHT31;55787;52.678;13.314;2023-04-15T01:44:29;7.70;99.99
68804;SHT31;55787;52.678;13.314;2023-04-15T01:46:56;7.68;99.99
68804;SHT31;55787;52.678;13.314;2023-04-15T01:49:23;7.68;99.99
68804;SHT31;55787;52.678;13.314;2023-04-15T01:51:49;7.74;99.99
68804;SHT31;55787;52.678;13.314;2023-04-15T01:54:16;7.75;99.99
68804;SHT31;55787;52.678;13.314;2023-04-15T01:56:42;7.75;99.99
68804;SHT31;55787;52.678;13.314;2023-04-15T01:59:09;7.78;99.99
68804;SHT31;55787;52.678;13.314;2023-04-15T02:01:36;7.84;99.99
68804;SHT31;55787;52.678;13.314;2023-04-15T02:04:02;7.79;99.99
68804;SHT31;55787;52.678;13.314;2023-04-15T02:06:29;7.79;99.99
68804;SHT31;55787;52.678;13.314;2023-04-15T02:08:55;7.81;99.99
68804;SHT31;55787;52.678;13.314;2023-04-15T02:11:22;7.77;99.99
68804;SHT31;55787;52.678;13.314;2023-04-15T02:13:49;7.77;99.99
68804;SHT31;55787;52.678;13.314;2023-04-15T02:16:17;7.72;99.99
68804;SHT31;55787;52.678;13.314;2023-04-15T02:18:45;7.72;99.99
68804;SHT31;55787;52.678;13.314;2023-04-15T02:21:13;7.74;99.99
68804;SHT31;55787;52.678;13.314;2023-04-15T02:23:40;7.70;99.99
68804;SHT31;55787;52.678;13.314;2023-04-15T02:26:06;7.71;99.99
68804;SHT31;55787;52.678;13.314;2023-04-15T02:28:33;7.72;99.99
68804;SHT31;55787;52.678;13.314;2023-04-15T02:31:04;7.75;99.99
68804;SHT31;55787;52.678;13.314;2023-04-15T02:33:32;7.77;99.99
68804;SHT31;55787;52.678;13.314;2023-04-15T02:35:58;7.74;99.99
68804;SHT31;55787;52.678;13.314;2023-04-15T02:38:25;7.75;99.99
68804;SHT31;55787;52.678;13.314;2023-04-15T02:40:52;7.75;99.99
68804;SHT31;55787;52.678;13.314;2023-04-15T02:43:19;7.75;99.99
68804;SHT31;55787;52.678;13.314;2023-04-15T02:45:45;7.74;99.99
68804;SHT31;55787;52.678;13.314;2023-04-15T02:48:12;7.70;99.99
68804;SHT31;55787;52.678;13.314;2023-04-15T02:50:39;7.68;99.99
68804;SHT31;55787;52.678;13.314;2023-04-15T02:53:06;7.71;99.99
68804;SHT31;55787;52.678;13.314;2023-04-15T02:55:33;7.67;99.99
68804;SHT31;55787;52.678;13.314;2023-04-15T02:58:00;7.68;99.99
68804;SHT31;55787;52.678;13.314;2023-04-15T03:00:26;7.68;99.99
68804;SHT31;55787;52.678;13.314;2023-04-15T03:02:58;7.67;99.99
68804;SHT31;55787;52.678;13.314;2023-04-15T03:05:25;7.67;99.99
68804;SHT31;55787;52.678;13.314;2023-04-15T03:07:52;7.67;99.99
68804;SHT31;55787;52.678;13.314;2023-04-15T03:10:19;7.70;99.99
68804;SHT31;55787;52.678;13.314;2023-04-15T03:12:47;7.71;99.99
68804;SHT31;55787;52.678;13.314;2023-04-15T03:15:14;7.74;99.99
68804;SHT31;55787;52.678;13.314;2023-04-15T03:17:41;7.77;99.99
68804;SHT31;55787;52.678;13.314;2023-04-15T03:20:08;7.78;99.99
68804;SHT31;55787;52.678;13.314;2023-04-15T03:22:35;7.77;99.99
68804;SHT31;55787;52.678;13.314;2023-04-15T03:25:02;7.77;99.99
68804;SHT31;55787;52.678;13.314;2023-04-15T03:27:29;7.78;99.99
68804;SHT31;55787;52.678;13.314;2023-04-15T03:29:56;7.79;99.99
68804;SHT31;55787;52.678;13.314;2023-04-15T03:32:22;7.77;99.99
68804;SHT31;55787;52.678;13.314;2023-04-15T03:34:49;7.85;99.99
68804;SHT31;55787;52.678;13.314;2023-04-15T03:37:16;7.86;99.99
68804;SHT31;55787;52.678;13.314;2023-04-15T03:39:42;7.86;99.99
68804;SHT31;55787;52.678;13.314;2023-04-15T03:42:09;7.85;99.99
68804;SHT31;55787;52.678;13.314;2023-04-15T03:44:36;7.91;99.99
68804;SHT31;55787;52.678;13.314;2023-04-15T03:47:03;7.86;99.99
68804;SHT31;55787;52.678;13.314;2023-04-15T03:49:29;7.82;99.99
68804;SHT31;55787;52.678;13.314;2023-04-15T03:51:56;7.84;99.99
68804;SHT31;55787;52.678;13.314;2023-04-15T03:54:23;7.88;99.99
68804;SHT31;55787;52.678;13.314;2023-04-15T03:56:49;7.86;99.99
68804;SHT31;55787;52.678;13.314;2023-04-15T03:59:16;7.85;99.99
68804;SHT31;55787;52.678;13.314;2023-04-15T04:01:43;7.88;99.99
68804;SHT31;55787;52.678;13.314;2023-04-15T04:04:09;7.85;99.99
68804;SHT31;55787;52.678;13.314;2023-04-15T04:06:37;7.82;99.99
68804;SHT31;55787;52.678;13.314;2023-04-15T04:09:03;7.82;99.99
68804;SHT31;55787;52.678;13.314;2023-04-15T04:11:30;7.81;99.99
68804;SHT31;55787;52.678;13.314;2023-04-15T04:13:58;7.75;99.99
68804;SHT31;55787;52.678;13.314;2023-04-15T04:16:24;7.78;99.99
68804;SHT31;55787;52.678;13.314;2023-04-15T04:18:51;7.78;99.99
68804;SHT31;55787;52.678;13.314;2023-04-15T04:21:18;7.79;99.99
68804;SHT31;55787;52.678;13.314;2023-04-15T04:23:46;7.78;99.99
68804;SHT31;55787;52.678;13.314;2023-04-15T04:26:13;7.78;99.99
68804;SHT31;55787;52.678;13.314;2023-04-15T04:28:39;7.77;99.99
68804;SHT31;55787;52.678;13.314;2023-04-15T04:31:06;7.82;99.99
68804;SHT31;55787;52.678;13.314;2023-04-15T04:33:33;7.81;99.99
68804;SHT31;55787;52.678;13.314;2023-04-15T04:36:02;7.79;99.99
68804;SHT31;55787;52.678;13.314;2023-04-15T04:38:29;7.81;99.99
68804;SHT31;55787;52.678;13.314;2023-04-15T04:40:56;7.78;99.99
68804;SHT31;55787;52.678;13.314;2023-04-15T04:43:22;7.79;99.99
68804;SHT31;55787;52.678;13.314;2023-04-15T04:45:49;7.86;99.99
68804;SHT31;55787;52.678;13.314;2023-04-15T04:48:16;7.85;99.99
68804;SHT31;55787;52.678;13.314;2023-04-15T04:50:43;7.86;99.99
68804;SHT31;55787;52.678;13.314;2023-04-15T04:53:10;7.88;99.99
68804;SHT31;55787;52.678;13.314;2023-04-15T04:55:37;7.86;99.99
68804;SHT31;55787;52.678;13.314;2023-04-15T04:58:04;7.89;99.99
68804;SHT31;55787;52.678;13.314;2023-04-15T05:00:31;7.92;99.99
68804;SHT31;55787;52.678;13.314;2023-04-15T05:02:57;7.94;99.99
68804;SHT31;55787;52.678;13.314;2023-04-15T05:05:24;7.95;99.99
68804;SHT31;55787;52.678;13.314;2023-04-15T05:07:51;8.02;99.99
68804;SHT31;55787;52.678;13.314;2023-04-15T05:10:18;8.03;99.99
68804;SHT31;55787;52.678;13.314;2023-04-15T05:12:45;8.06;99.99
68804;SHT31;55787;52.678;13.314;2023-04-15T05:15:12;8.13;99.99
68804;SHT31;55787;52.678;13.314;2023-04-15T05:17:38;8.19;99.99
68804;SHT31;55787;52.678;13.314;2023-04-15T05:20:06;8.22;99.99
68804;SHT31;55787;52.678;13.314;2023-04-15T05:22:33;8.23;99.99
68804;SHT31;55787;52.678;13.314;2023-04-15T05:24:59;8.30;99.99
68804;SHT31;55787;52.678;13.314;2023-04-15T05:27:26;8.33;99.99
68804;SHT31;55787;52.678;13.314;2023-04-15T05:29:53;8.39;99.99
68804;SHT31;55787;52.678;13.314;2023-04-15T05:32:20;8.42;99.99
68804;SHT31;55787;52.678;13.314;2023-04-15T05:34:46;8.42;99.99
68804;SHT31;55787;52.678;13.314;2023-04-15T05:37:13;8.46;99.99
68804;SHT31;55787;52.678;13.314;2023-04-15T05:39:39;8.49;99.99
68804;SHT31;55787;52.678;13.314;2023-04-15T05:42:06;8.50;99.99
68804;SHT31;55787;52.678;13.314;2023-04-15T05:44:33;8.57;99.99
68804;SHT31;55787;52.678;13.314;2023-04-15T05:47:00;8.60;99.99
68804;SHT31;55787;52.678;13.314;2023-04-15T05:49:28;8.61;99.99
68804;SHT31;55787;52.678;13.314;2023-04-15T05:51:55;8.67;99.88
68804;SHT31;55787;52.678;13.314;2023-04-15T05:54:22;8.73;99.58
68804;SHT31;55787;52.678;13.314;2023-04-15T05:56:49;8.78;99.19
68804;SHT31;55787;52.678;13.314;2023-04-15T05:59:15;8.80;99.31
68804;SHT31;55787;52.678;13.314;2023-04-15T06:01:42;8.91;99.36
68804;SHT31;55787;52.678;13.314;2023-04-15T06:04:09;9.04;98.69
68804;SHT31;55787;52.678;13.314;2023-04-15T06:06:37;9.11;98.57
68804;SHT31;55787;52.678;13.314;2023-04-15T06:09:03;9.15;98.55
68804;SHT31;55787;52.678;13.314;2023-04-15T06:11:30;9.21;98.47
68804;SHT31;55787;52.678;13.314;2023-04-15T06:13:57;9.29;98.19
68804;SHT31;55787;52.678;13.314;2023-04-15T06:16:24;9.33;97.90
68804;SHT31;55787;52.678;13.314;2023-04-15T06:18:50;9.42;97.59
68804;SHT31;55787;52.678;13.314;2023-04-15T06:21:17;9.56;97.40
68804;SHT31;55787;52.678;13.314;2023-04-15T06:23:44;9.73;96.95
68804;SHT31;55787;52.678;13.314;2023-04-15T06:26:10;9.87;96.27
68804;SHT31;55787;52.678;13.314;2023-04-15T06:28:37;10.01;96.09
68804;SHT31;55787;52.678;13.314;2023-04-15T06:31:03;10.25;95.64
68804;SHT31;55787;52.678;13.314;2023-04-15T06:33:30;10.35;94.55
68804;SHT31;55787;52.678;13.314;2023-04-15T06:35:57;10.61;93.42
68804;SHT31;55787;52.678;13.314;2023-04-15T06:38:23;10.72;92.75
68804;SHT31;55787;52.678;13.314;2023-04-15T06:40:50;10.95;91.77
68804;SHT31;55787;52.678;13.314;2023-04-15T06:43:17;11.27;90.66
68804;SHT31;55787;52.678;13.314;2023-04-15T06:45:43;11.50;90.00
68804;SHT31;55787;52.678;13.314;2023-04-15T06:48:11;11.89;89.45
68804;SHT31;55787;52.678;13.314;2023-04-15T06:50:38;12.54;86.23
68804;SHT31;55787;52.678;13.314;2023-04-15T06:53:04;12.84;83.46
68804;SHT31;55787;52.678;13.314;2023-04-15T06:55:31;13.36;82.39
68804;SHT31;55787;52.678;13.314;2023-04-15T06:57:59;13.35;81.05
68804;SHT31;55787;52.678;13.314;2023-04-15T07:00:26;13.35;81.13
68804;SHT31;55787;52.678;13.314;2023-04-15T07:02:54;13.25;82.52
68804;SHT31;55787;52.678;13.314;2023-04-15T07:05:21;13.12;81.47
68804;SHT31;55787;52.678;13.314;2023-04-15T07:07:48;12.83;82.43
68804;SHT31;55787;52.678;13.314;2023-04-15T07:10:15;12.85;82.56
68804;SHT31;55787;52.678;13.314;2023-04-15T07:12:42;13.10;82.08
68804;SHT31;55787;52.678;13.314;2023-04-15T07:15:09;13.01;82.65
68804;SHT31;55787;52.678;13.314;2023-04-15T07:17:36;13.12;80.82
68804;SHT31;55787;52.678;13.314;2023-04-15T07:20:03;13.31;80.03
68804;SHT31;55787;52.678;13.314;2023-04-15T07:22:30;12.65;82.33
68804;SHT31;55787;52.678;13.314;2023-04-15T07:24:57;12.12;84.19
68804;SHT31;55787;52.678;13.314;2023-04-15T07:27:24;11.64;85.70
68804;SHT31;55787;52.678;13.314;2023-04-15T07:29:51;11.48;86.94
68804;SHT31;55787;52.678;13.314;2023-04-15T07:32:18;11.41;86.36
68804;SHT31;55787;52.678;13.314;2023-04-15T07:34:45;11.24;86.75
68804;SHT31;55787;52.678;13.314;2023-04-15T07:37:13;11.04;88.26
68804;SHT31;55787;52.678;13.314;2023-04-15T07:39:40;10.95;87.53
68804;SHT31;55787;52.678;13.314;2023-04-15T07:42:07;10.92;87.70
68804;SHT31;55787;52.678;13.314;2023-04-15T07:44:34;10.89;88.69
68804;SHT31;55787;52.678;13.314;2023-04-15T07:47:02;10.85;88.83
68804;SHT31;55787;52.678;13.314;2023-04-15T07:49:29;10.86;88.99
68804;SHT31;55787;52.678;13.314;2023-04-15T07:51:56;10.86;90.14
68804;SHT31;55787;52.678;13.314;2023-04-15T07:54:25;10.89;90.18
68804;SHT31;55787;52.678;13.314;2023-04-15T07:56:52;10.89;89.58
68804;SHT31;55787;52.678;13.314;2023-04-15T07:59:19;10.88;89.61
68804;SHT31;55787;52.678;13.314;2023-04-15T08:01:47;10.89;88.93
68804;SHT31;55787;52.678;13.314;2023-04-15T08:04:13;10.99;89.77
68804;SHT31;55787;52.678;13.314;2023-04-15T08:06:41;11.04;87.94
68804;SHT31;55787;52.678;13.314;2023-04-15T08:09:07;11.03;88.30
68804;SHT31;55787;52.678;13.314;2023-04-15T08:11:34;11.03;88.08
68804;SHT31;55787;52.678;13.314;2023-04-15T08:14:01;10.96;88.86
68804;SHT31;55787;52.678;13.314;2023-04-15T08:16:28;10.97;88.54
68804;SHT31;55787;52.678;13.314;2023-04-15T08:18:56;10.92;88.84
68804;SHT31;55787;52.678;13.314;2023-04-15T08:21:23;10.86;88.39
68804;SHT31;55787;52.678;13.314;2023-04-15T08:23:53;10.88;88.89
68804;SHT31;55787;52.678;13.314;2023-04-15T08:26:20;10.92;89.37
68804;SHT31;55787;52.678;13.314;2023-04-15T08:28:48;10.93;89.55
68804;SHT31;55787;52.678;13.314;2023-04-15T08:31:15;11.04;89.66
68804;SHT31;55787;52.678;13.314;2023-04-15T08:33:42;11.14;89.25
68804;SHT31;55787;52.678;13.314;2023-04-15T08:36:09;11.27;87.52
68804;SHT31;55787;52.678;13.314;2023-04-15T08:38:36;11.31;87.32
68804;SHT31;55787;52.678;13.314;2023-04-15T08:41:11;11.33;88.33
68804;SHT31;55787;52.678;13.314;2023-04-15T08:43:51;11.27;88.68
68804;SHT31;55787;52.678;13.314;2023-04-15T08:46:18;11.47;86.69
68804;SHT31;55787;52.678;13.314;2023-04-15T08:48:46;11.33;88.40
68804;SHT31;55787;52.678;13.314;2023-04-15T08:51:13;11.41;86.83
68804;SHT31;55787;52.678;13.314;2023-04-15T08:53:45;11.44;87.08
68804;SHT31;55787;52.678;13.314;2023-04-15T08:56:14;11.37;87.15
68804;SHT31;55787;52.678;13.314;2023-04-15T08:58:45;11.37;87.87
68804;SHT31;55787;52.678;13.314;2023-04-15T09:01:12;11.30;88.33
68804;SHT31;55787;52.678;13.314;2023-04-15T09:03:40;11.31;87.53
68804;SHT31;55787;52.678;13.314;2023-04-15T09:06:07;11.28;88.44
68804;SHT31;55787;52.678;13.314;2023-04-15T09:08:34;11.31;88.84
68804;SHT31;55787;52.678;13.314;2023-04-15T09:11:02;11.30;88.59
68804;SHT31;55787;52.678;13.314;2023-04-15T09:13:29;11.31;88.09
68804;SHT31;55787;52.678;13.314;2023-04-15T09:15:55;11.34;87.99
68804;SHT31;55787;52.678;13.314;2023-04-15T09:18:29;11.27;87.72
68804;SHT31;55787;52.678;13.314;2023-04-15T09:21:03;11.34;87.63
68804;SHT31;55787;52.678;13.314;2023-04-15T09:23:31;11.34;87.15
68804;SHT31;55787;52.678;13.314;2023-04-15T09:25:57;11.37;86.51
68804;SHT31;55787;52.678;13.314;2023-04-15T09:28:24;11.37;85.46
68804;SHT31;55787;52.678;13.314;2023-04-15T09:30:55;11.38;86.44
68804;SHT31;55787;52.678;13.314;2023-04-15T09:33:23;11.38;87.12
68804;SHT31;55787;52.678;13.314;2023-04-15T09:36:02;11.45;88.47
68804;SHT31;55787;52.678;13.314;2023-04-15T09:38:30;11.53;87.22
68804;SHT31;55787;52.678;13.314;2023-04-15T09:40:57;11.57;86.81
68804;SHT31;55787;52.678;13.314;2023-04-15T09:43:38;11.54;86.88
68804;SHT31;55787;52.678;13.314;2023-04-15T09:46:06;11.53;86.70
68804;SHT31;55787;52.678;13.314;2023-04-15T09:48:32;11.54;87.44
68804;SHT31;55787;52.678;13.314;2023-04-15T09:51:00;11.57;87.28
68804;SHT31;55787;52.678;13.314;2023-04-15T09:53:27;11.58;86.75
68804;SHT31;55787;52.678;13.314;2023-04-15T09:55:58;11.64;86.14
68804;SHT31;55787;52.678;13.314;2023-04-15T09:58:33;11.58;86.45
68804;SHT31;55787;52.678;13.314;2023-04-15T10:01:03;11.48;87.51
68804;SHT31;55787;52.678;13.314;2023-04-15T10:03:32;11.57;85.46
68804;SHT31;55787;52.678;13.314;2023-04-15T10:06:01;11.43;86.70
68804;SHT31;55787;52.678;13.314;2023-04-15T10:08:31;11.33;87.60
68804;SHT31;55787;52.678;13.314;2023-04-15T10:11:00;11.35;86.96
68804;SHT31;55787;52.678;13.314;2023-04-15T10:13:29;11.35;87.66
68804;SHT31;55787;52.678;13.314;2023-04-15T10:16:11;11.45;88.69
68804;SHT31;55787;52.678;13.314;2023-04-15T10:18:44;11.45;86.96
68804;SHT31;55787;52.678;13.314;2023-04-15T10:21:12;11.53;86.82
68804;SHT31;55787;52.678;13.314;2023-04-15T10:23:41;11.45;87.98
68804;SHT31;55787;52.678;13.314;2023-04-15T10:26:08;11.48;87.54
68804;SHT31;55787;52.678;13.314;2023-04-15T10:28:37;11.48;87.81
68804;SHT31;55787;52.678;13.314;2023-04-15T10:31:04;11.43;89.01
68804;SHT31;55787;52.678;13.314;2023-04-15T10:33:32;11.43;88.06
68804;SHT31;55787;52.678;13.314;2023-04-15T10:35:59;11.43;89.76
68804;SHT31;55787;52.678;13.314;2023-04-15T10:41:25;11.47;90.21
68804;SHT31;55787;52.678;13.314;2023-04-15T10:43:55;11.53;89.23
68804;SHT31;55787;52.678;13.314;2023-04-15T10:46:36;11.58;88.98
68804;SHT31;55787;52.678;13.314;2023-04-15T10:49:15;11.57;88.29
68804;SHT31;55787;52.678;13.314;2023-04-15T10:51:44;11.57;89.93
68804;SHT31;55787;52.678;13.314;2023-04-15T10:56:52;11.51;90.23
68804;SHT31;55787;52.678;13.314;2023-04-15T10:59:35;11.44;89.61
68804;SHT31;55787;52.678;13.314;2023-04-15T11:02:04;11.41;90.60
68804;SHT31;55787;52.678;13.314;2023-04-15T11:04:51;11.43;90.22
68804;SHT31;55787;52.678;13.314;2023-04-15T11:12:40;11.35;91.47
68804;SHT31;55787;52.678;13.314;2023-04-15T11:15:36;11.41;91.26
68804;SHT31;55787;52.678;13.314;2023-04-15T11:18:19;11.37;91.29
68804;SHT31;55787;52.678;13.314;2023-04-15T11:20:51;11.37;90.88
68804;SHT31;55787;52.678;13.314;2023-04-15T11:26:04;11.33;91.45
68804;SHT31;55787;52.678;13.314;2023-04-15T11:28:32;11.33;92.08
68804;SHT31;55787;52.678;13.314;2023-04-15T11:31:05;11.34;92.00
68804;SHT31;55787;52.678;13.314;2023-04-15T11:33:32;11.35;92.34
68804;SHT31;55787;52.678;13.314;2023-04-15T11:36:00;11.37;92.81
68804;SHT31;55787;52.678;13.314;2023-04-15T11:38:26;11.38;92.55
68804;SHT31;55787;52.678;13.314;2023-04-15T11:40:53;11.41;92.30
68804;SHT31;55787;52.678;13.314;2023-04-15T11:43:22;11.41;92.48
68804;SHT31;55787;52.678;13.314;2023-04-15T11:45:58;11.35;92.14
68804;SHT31;55787;52.678;13.314;2023-04-15T11:48:31;11.38;92.04
68804;SHT31;55787;52.678;13.314;2023-04-15T11:51:05;11.37;92.45
68804;SHT31;55787;52.678;13.314;2023-04-15T11:53:47;11.37;92.33
68804;SHT31;55787;52.678;13.314;2023-04-15T11:56:24;11.33;92.77
68804;SHT31;55787;52.678;13.314;2023-04-15T11:58:56;11.27;92.90
68804;SHT31;55787;52.678;13.314;2023-04-15T12:01:34;11.24;92.55
68804;SHT31;55787;52.678;13.314;2023-04-15T12:04:01;11.19;92.97
68804;SHT31;55787;52.678;13.314;2023-04-15T12:06:33;11.14;92.82
68804;SHT31;55787;52.678;13.314;2023-04-15T12:11:42;11.10;93.72
68804;SHT31;55787;52.678;13.314;2023-04-15T12:14:28;11.12;93.31
68804;SHT31;55787;52.678;13.314;2023-04-15T12:17:00;11.09;94.06
68804;SHT31;55787;52.678;13.314;2023-04-15T12:19:35;11.07;93.04
68804;SHT31;55787;52.678;13.314;2023-04-15T12:22:05;11.07;93.46
68804;SHT31;55787;52.678;13.314;2023-04-15T12:24:33;11.03;93.79
68804;SHT31;55787;52.678;13.314;2023-04-15T12:27:06;11.04;93.58
68804;SHT31;55787;52.678;13.314;2023-04-15T12:29:34;11.10;94.15
68804;SHT31;55787;52.678;13.314;2023-04-15T12:32:05;11.06;94.46
68804;SHT31;55787;52.678;13.314;2023-04-15T12:34:35;11.09;94.32
68804;SHT31;55787;52.678;13.314;2023-04-15T12:37:03;11.17;94.21
68804;SHT31;55787;52.678;13.314;2023-04-15T12:39:34;11.20;93.60
68804;SHT31;55787;52.678;13.314;2023-04-15T12:42:01;11.24;94.06
68804;SHT31;55787;52.678;13.314;2023-04-15T12:44:29;11.34;93.91
68804;SHT31;55787;52.678;13.314;2023-04-15T12:46:55;11.34;93.78
68804;SHT31;55787;52.678;13.314;2023-04-15T12:49:23;11.44;93.62
68804;SHT31;55787;52.678;13.314;2023-04-15T12:51:52;11.40;93.87
68804;SHT31;55787;52.678;13.314;2023-04-15T12:54:19;11.44;93.23
68804;SHT31;55787;52.678;13.314;2023-04-15T12:56:47;11.47;92.68
68804;SHT31;55787;52.678;13.314;2023-04-15T12:59:15;11.43;93.79
68804;SHT31;55787;52.678;13.314;2023-04-15T13:01:46;11.40;93.51
68804;SHT31;55787;52.678;13.314;2023-04-15T13:04:14;11.38;93.18
68804;SHT31;55787;52.678;13.314;2023-04-15T13:06:42;11.30;93.16
68804;SHT31;55787;52.678;13.314;2023-04-15T13:09:09;11.23;93.52
68804;SHT31;55787;52.678;13.314;2023-04-15T13:11:36;11.24;93.64
68804;SHT31;55787;52.678;13.314;2023-04-15T13:14:05;11.22;93.99
68804;SHT31;55787;52.678;13.314;2023-04-15T13:16:33;11.20;94.45
68804;SHT31;55787;52.678;13.314;2023-04-15T13:19:00;11.20;94.66
68804;SHT31;55787;52.678;13.314;2023-04-15T13:21:28;11.22;94.52
68804;SHT31;55787;52.678;13.314;2023-04-15T13:23:55;11.19;94.71
68804;SHT31;55787;52.678;13.314;2023-04-15T13:26:21;11.19;94.76
68804;SHT31;55787;52.678;13.314;2023-04-15T13:28:48;11.24;94.72
68804;SHT31;55787;52.678;13.314;2023-04-15T13:31:14;11.22;94.56
68804;SHT31;55787;52.678;13.314;2023-04-15T13:33:41;11.19;94.70
68804;SHT31;55787;52.678;13.314;2023-04-15T13:36:08;11.13;94.24
68804;SHT31;55787;52.678;13.314;2023-04-15T13:38:35;11.14;94.45
68804;SHT31;55787;52.678;13.314;2023-04-15T13:41:01;11.10;94.46
68804;SHT31;55787;52.678;13.314;2023-04-15T13:43:28;11.09;94.85
68804;SHT31;55787;52.678;13.314;2023-04-15T13:45:55;11.04;95.37
68804;SHT31;55787;52.678;13.314;2023-04-15T13:48:21;10.97;95.62
68804;SHT31;55787;52.678;13.314;2023-04-15T13:50:49;10.92;95.77
68804;SHT31;55787;52.678;13.314;2023-04-15T13:53:15;10.85;95.74
68804;SHT31;55787;52.678;13.314;2023-04-15T13:55:42;10.88;95.69
68804;SHT31;55787;52.678;13.314;2023-04-15T13:58:10;10.86;95.98
68804;SHT31;55787;52.678;13.314;2023-04-15T14:00:36;10.86;95.81
68804;SHT31;55787;52.678;13.314;2023-04-15T14:03:03;10.88;95.99
68804;SHT31;55787;52.678;13.314;2023-04-15T14:05:31;10.83;95.95
68804;SHT31;55787;52.678;13.314;2023-04-15T14:07:58;10.86;96.07
68804;SHT31;55787;52.678;13.314;2023-04-15T14:10:25;10.82;96.01
68804;SHT31;55787;52.678;13.314;2023-04-15T14:12:52;10.86;96.17
68804;SHT31;55787;52.678;13.314;2023-04-15T14:15:18;10.79;96.20
68804;SHT31;55787;52.678;13.314;2023-04-15T14:17:45;10.77;96.23
68804;SHT31;55787;52.678;13.314;2023-04-15T14:20:12;10.69;96.87
68804;SHT31;55787;52.678;13.314;2023-04-15T14:22:41;10.71;96.95
68804;SHT31;55787;52.678;13.314;2023-04-15T14:25:08;10.76;96.40
68804;SHT31;55787;52.678;13.314;2023-04-15T14:27:49;10.72;96.31
68804;SHT31;55787;52.678;13.314;2023-04-15T14:30:16;10.71;96.30
68804;SHT31;55787;52.678;13.314;2023-04-15T14:32:44;10.71;96.65
68804;SHT31;55787;52.678;13.314;2023-04-15T14:35:12;10.71;96.29
68804;SHT31;55787;52.678;13.314;2023-04-15T14:37:40;10.68;96.48
68804;SHT31;55787;52.678;13.314;2023-04-15T14:40:07;10.69;96.55
68804;SHT31;55787;52.678;13.314;2023-04-15T14:42:35;10.61;97.02
68804;SHT31;55787;52.678;13.314;2023-04-15T14:45:03;10.59;96.88
68804;SHT31;55787;52.678;13.314;2023-04-15T14:47:30;10.55;97.13
68804;SHT31;55787;52.678;13.314;2023-04-15T14:49:57;10.58;97.03
68804;SHT31;55787;52.678;13.314;2023-04-15T14:52:25;10.59;97.02
68804;SHT31;55787;52.678;13.314;2023-04-15T14:54:52;10.58;96.99
68804;SHT31;55787;52.678;13.314;2023-04-15T14:57:19;10.52;97.10
68804;SHT31;55787;52.678;13.314;2023-04-15T14:59:46;10.58;97.14
68804;SHT31;55787;52.678;13.314;2023-04-15T15:02:15;10.59;97.23
68804;SHT31;55787;52.678;13.314;2023-04-15T15:05:03;10.56;97.18
68804;SHT31;55787;52.678;13.314;2023-04-15T15:07:30;10.58;97.37
68804;SHT31;55787;52.678;13.314;2023-04-15T15:09:56;10.56;97.46
68804;SHT31;55787;52.678;13.314;2023-04-15T15:12:23;10.59;97.22
68804;SHT31;55787;52.678;13.314;2023-04-15T15:14:50;10.56;97.18
68804;SHT31;55787;52.678;13.314;2023-04-15T15:17:17;10.55;97.07
68804;SHT31;55787;52.678;13.314;2023-04-15T15:19:44;10.56;97.34
68804;SHT31;55787;52.678;13.314;2023-04-15T15:22:11;10.58;97.48
68804;SHT31;55787;52.678;13.314;2023-04-15T15:24:38;10.59;97.27
68804;SHT31;55787;52.678;13.314;2023-04-15T15:27:05;10.55;97.16
68804;SHT31;55787;52.678;13.314;2023-04-15T15:29:31;10.61;97.32
68804;SHT31;55787;52.678;13.314;2023-04-15T15:31:58;10.61;97.43
68804;SHT31;55787;52.678;13.314;2023-04-15T15:34:25;10.65;97.52
68804;SHT31;55787;52.678;13.314;2023-04-15T15:36:52;10.59;97.47
68804;SHT31;55787;52.678;13.314;2023-04-15T15:39:22;10.62;97.63
68804;SHT31;55787;52.678;13.314;2023-04-15T15:41:49;10.61;97.73
68804;SHT31;55787;52.678;13.314;2023-04-15T15:44:15;10.58;97.90